Time;durP1;ratioP1;P1;durP2;ratioP2;P2;SDS_P1;SDS_P2;PMS_P1;PMS_P2;Temp;Humidity;BMP_temperature;BMP_pressure;BME280_temperature;BME280_humidity;BME280_pressure;Samples;Min_cycle;Max_cycle;Signal;HPM_P1;HPM_P2
2022/05/18 00:00:20;;;;;;;4.10;2.88;;;;;;;;;;5036823;28;20199;-79
2022/05/18 00:02:48;;;;;;;5.50;3.78;;;;;;;;;;5050974;28;20195;-80
2022/05/18 00:05:15;;;;;;;3.38;3.08;;;;;;;;;;5049226;28;20203;-79
2022/05/18 00:07:43;;;;;;;3.20;2.90;;;;;;;;;;5051249;28;20604;-79
2022/05/18 00:10:11;;;;;;;2.90;2.65;;;;;;;;;;5038299;28;20206;-78
2022/05/18 00:12:43;;;;;;;3.55;2.85;;;;;;;;;;5047115;28;20207;-80
2022/05/18 00:15:11;;;;;;;6.85;2.45;;;;;;;;;;5042251;28;20191;-77
2022/05/18 00:17:38;;;;;;;3.42;2.92;;;;;;;;;;5045586;28;20678;-78
2022/05/18 00:20:05;;;;;;;5.57;3.60;;;;;;;;;;5047787;28;20201;-77
2022/05/18 00:22:32;;;;;;;4.47;3.05;;;;;;;;;;5045215;28;20210;-79
2022/05/18 00:25:02;;;;;;;5.88;3.38;;;;;;;;;;5041028;28;20199;-76
2022/05/18 00:27:29;;;;;;;5.53;2.70;;;;;;;;;;5044331;28;20219;-78
2022/05/18 00:29:56;;;;;;;4.63;3.30;;;;;;;;;;5039340;28;20200;-78
2022/05/18 00:32:24;;;;;;;2.85;2.45;;;;;;;;;;5045665;28;20195;-78
2022/05/18 00:34:51;;;;;;;4.03;2.92;;;;;;;;;;5049791;28;20202;-77
2022/05/18 00:37:18;;;;;;;4.18;2.65;;;;;;;;;;5044003;28;20210;-78
2022/05/18 00:39:45;;;;;;;11.18;2.58;;;;;;;;;;5048067;28;20202;-77
2022/05/18 00:42:20;;;;;;;4.00;2.55;;;;;;;;;;5038137;28;20222;-78
2022/05/18 00:44:47;;;;;;;4.05;3.00;;;;;;;;;;5040725;28;20687;-79
2022/05/18 00:47:14;;;;;;;4.82;3.15;;;;;;;;;;5033034;28;20222;-78
2022/05/18 00:49:42;;;;;;;3.13;2.58;;;;;;;;;;5044937;28;20209;-78
2022/05/18 00:52:09;;;;;;;2.53;2.28;;;;;;;;;;5044258;28;20205;-77
2022/05/18 00:54:37;;;;;;;3.35;2.58;;;;;;;;;;5041079;28;20206;-77
2022/05/18 00:57:07;;;;;;;5.47;3.20;;;;;;;;;;5044426;28;20290;-78
2022/05/18 00:59:39;;;;;;;3.25;2.85;;;;;;;;;;5051091;28;20571;-76
2022/05/18 01:02:07;;;;;;;2.40;2.20;;;;;;;;;;5044578;28;20202;-78
2022/05/18 01:04:34;;;;;;;2.72;2.30;;;;;;;;;;5040849;28;20556;-79
2022/05/18 01:07:03;;;;;;;3.55;2.80;;;;;;;;;;5046251;28;20646;-78
2022/05/18 01:09:34;;;;;;;2.58;2.38;;;;;;;;;;5046576;28;20209;-78
2022/05/18 01:12:01;;;;;;;5.15;2.95;;;;;;;;;;5040859;28;20218;-78
2022/05/18 01:14:29;;;;;;;4.07;2.35;;;;;;;;;;5043675;28;20230;-78
2022/05/18 01:16:57;;;;;;;3.83;2.67;;;;;;;;;;5040141;28;20678;-77
2022/05/18 01:19:29;;;;;;;3.78;3.47;;;;;;;;;;5041743;28;20195;-78
2022/05/18 01:22:01;;;;;;;3.65;3.28;;;;;;;;;;5039892;28;20575;-78
2022/05/18 01:24:30;;;;;;;4.63;2.88;;;;;;;;;;5029295;28;20204;-78
2022/05/18 01:27:00;;;;;;;4.72;3.30;;;;;;;;;;5048410;28;20231;-77
2022/05/18 01:29:28;;;;;;;2.97;2.67;;;;;;;;;;5043333;28;20202;-78
2022/05/18 01:31:59;;;;;;;3.60;3.30;;;;;;;;;;5044414;28;20607;-77
2022/05/18 01:34:27;;;;;;;5.60;4.10;;;;;;;;;;5050016;28;20191;-78
2022/05/18 01:36:54;;;;;;;5.03;2.97;;;;;;;;;;5043620;28;20658;-78
2022/05/18 01:39:24;;;;;;;3.15;2.85;;;;;;;;;;5040515;28;20551;-78
2022/05/18 01:41:54;;;;;;;5.18;3.50;;;;;;;;;;5048401;28;20225;-78
2022/05/18 01:44:23;;;;;;;5.30;3.17;;;;;;;;;;5049334;28;20642;-78
2022/05/18 01:46:50;;;;;;;3.55;3.25;;;;;;;;;;5047238;28;20207;-78
2022/05/18 01:49:17;;;;;;;3.67;2.90;;;;;;;;;;5043844;28;20219;-78
2022/05/18 01:51:47;;;;;;;3.13;2.92;;;;;;;;;;5041790;28;20257;-78
2022/05/18 01:54:14;;;;;;;5.07;4.38;;;;;;;;;;5040682;28;20290;-78
2022/05/18 01:56:42;;;;;;;4.72;3.45;;;;;;;;;;5038919;28;20202;-78
2022/05/18 01:59:10;;;;;;;4.03;3.15;;;;;;;;;;5047552;28;20662;-78
2022/05/18 02:01:39;;;;;;;5.10;3.55;;;;;;;;;;5040882;28;20482;-78
2022/05/18 02:04:07;;;;;;;4.15;3.42;;;;;;;;;;5041644;28;20198;-79
2022/05/18 02:06:34;;;;;;;4.15;3.55;;;;;;;;;;5048336;28;20508;-77
2022/05/18 02:09:02;;;;;;;6.13;3.60;;;;;;;;;;5047717;28;20231;-82
2022/05/18 02:11:29;;;;;;;4.13;2.97;;;;;;;;;;5040643;28;20204;-81
2022/05/18 02:13:56;;;;;;;4.25;3.58;;;;;;;;;;5051748;28;20199;-82
2022/05/18 02:16:23;;;;;;;2.95;2.70;;;;;;;;;;5045262;28;20229;-82
2022/05/18 02:18:51;;;;;;;3.42;2.95;;;;;;;;;;5039866;28;20192;-82
2022/05/18 02:21:19;;;;;;;4.30;3.45;;;;;;;;;;5051219;28;20199;-82
2022/05/18 02:23:46;;;;;;;4.30;3.80;;;;;;;;;;5040142;28;20210;-83
2022/05/18 02:26:14;;;;;;;3.55;3.25;;;;;;;;;;5052960;28;20206;-81
2022/05/18 02:28:41;;;;;;;3.45;3.15;;;;;;;;;;5048452;28;20223;-81
2022/05/18 02:31:08;;;;;;;3.83;3.35;;;;;;;;;;5049928;28;20634;-83
2022/05/18 02:33:36;;;;;;;4.65;3.28;;;;;;;;;;5044835;28;20202;-81
2022/05/18 02:36:06;;;;;;;3.10;2.30;;;;;;;;;;5040772;28;20204;-82
2022/05/18 02:38:33;;;;;;;5.22;3.67;;;;;;;;;;5047559;28;20199;-82
2022/05/18 02:41:00;;;;;;;4.75;4.35;;;;;;;;;;5040016;28;20558;-80
2022/05/18 02:43:28;;;;;;;3.20;2.90;;;;;;;;;;5038967;28;20203;-81
2022/05/18 02:46:01;;;;;;;3.42;3.15;;;;;;;;;;5047522;28;20200;-82
2022/05/18 02:48:28;;;;;;;5.03;3.40;;;;;;;;;;5049706;28;20219;-81
2022/05/18 02:50:55;;;;;;;4.10;3.33;;;;;;;;;;5052340;28;20206;-81
2022/05/18 02:53:24;;;;;;;3.60;3.22;;;;;;;;;;5044757;28;20203;-81
2022/05/18 02:56:05;;;;;;;2.40;2.20;;;;;;;;;;5050752;28;20285;-81
2022/05/18 02:58:32;;;;;;;2.00;1.85;;;;;;;;;;5047376;28;20310;-81
2022/05/18 03:01:00;;;;;;;6.22;3.63;;;;;;;;;;5047113;28;20195;-79
2022/05/18 03:03:28;;;;;;;2.80;2.50;;;;;;;;;;5046604;28;23200;-80
2022/05/18 03:05:55;;;;;;;2.33;2.10;;;;;;;;;;5041175;28;20686;-78
2022/05/18 03:08:24;;;;;;;3.35;2.38;;;;;;;;;;5048254;28;20215;-79
2022/05/18 03:10:51;;;;;;;4.82;1.80;;;;;;;;;;5049292;28;20210;-79
2022/05/18 03:13:18;;;;;;;2.20;2.00;;;;;;;;;;5040789;28;20200;-79
2022/05/18 03:15:46;;;;;;;2.85;2.40;;;;;;;;;;5043696;28;20206;-79
2022/05/18 03:18:14;;;;;;;2.30;2.10;;;;;;;;;;5040789;28;20706;-79
2022/05/18 03:23:36;;;;;;;3.15;2.85;;;;;;;;;;5020011;28;20749;-79
2022/05/18 03:26:04;;;;;;;2.60;2.40;;;;;;;;;;5046251;28;20214;-79
2022/05/18 03:28:32;;;;;;;5.35;3.22;;;;;;;;;;5053351;28;20266;-80
2022/05/18 03:30:59;;;;;;;3.05;1.98;;;;;;;;;;5049572;28;20331;-80
2022/05/18 03:33:26;;;;;;;3.10;2.50;;;;;;;;;;5051628;28;20558;-80
2022/05/18 03:35:54;;;;;;;2.20;2.00;;;;;;;;;;5048073;28;20204;-79
2022/05/18 03:38:21;;;;;;;2.30;2.10;;;;;;;;;;5045393;28;20282;-80
2022/05/18 03:40:50;;;;;;;2.70;2.50;;;;;;;;;;5053147;28;20203;-78
2022/05/18 03:43:17;;;;;;;3.05;2.22;;;;;;;;;;5051446;28;20210;-78
2022/05/18 03:45:45;;;;;;;2.80;2.60;;;;;;;;;;5051917;28;20203;-77
2022/05/18 03:48:13;;;;;;;3.85;2.15;;;;;;;;;;5047524;28;20576;-78
2022/05/18 03:50:42;;;;;;;2.20;2.00;;;;;;;;;;5050556;28;20265;-78
2022/05/18 03:53:10;;;;;;;2.30;2.10;;;;;;;;;;5035309;28;20196;-79
2022/05/18 03:55:38;;;;;;;2.97;2.70;;;;;;;;;;5042168;28;20203;-79
2022/05/18 03:58:06;;;;;;;2.20;2.00;;;;;;;;;;5035809;28;20680;-79
2022/05/18 04:00:34;;;;;;;2.45;2.25;;;;;;;;;;5039865;28;20674;-78
2022/05/18 04:03:02;;;;;;;2.53;2.33;;;;;;;;;;5050835;28;20250;-79
2022/05/18 04:05:30;;;;;;;2.35;2.08;;;;;;;;;;5046464;28;20239;-79
2022/05/18 04:07:57;;;;;;;2.10;1.95;;;;;;;;;;5047112;28;20202;-79
2022/05/18 04:10:24;;;;;;;2.53;2.33;;;;;;;;;;5042893;28;20443;-79
2022/05/18 04:12:51;;;;;;;2.78;2.58;;;;;;;;;;5045486;28;20207;-79
2022/05/18 04:15:20;;;;;;;2.63;2.42;;;;;;;;;;5039238;28;20203;-79
2022/05/18 04:17:48;;;;;;;2.20;2.10;;;;;;;;;;5040799;28;20204;-79
2022/05/18 04:20:16;;;;;;;3.25;2.40;;;;;;;;;;5050691;28;20203;-79
2022/05/18 04:22:44;;;;;;;3.28;2.97;;;;;;;;;;5040433;28;20223;-79
2022/05/18 04:25:11;;;;;;;3.35;2.80;;;;;;;;;;5050559;28;20285;-79
2022/05/18 04:27:38;;;;;;;2.72;2.50;;;;;;;;;;5042213;28;20488;-79
2022/05/18 04:30:07;;;;;;;2.53;2.33;;;;;;;;;;5038973;28;20229;-79
2022/05/18 04:32:36;;;;;;;2.83;2.63;;;;;;;;;;5039868;28;20223;-80
2022/05/18 04:35:03;;;;;;;4.80;2.60;;;;;;;;;;5043117;28;20191;-79
2022/05/18 04:37:30;;;;;;;2.90;2.70;;;;;;;;;;5045642;28;20199;-80
2022/05/18 04:39:57;;;;;;;3.08;2.80;;;;;;;;;;5039818;28;20540;-79
2022/05/18 04:42:24;;;;;;;2.85;2.45;;;;;;;;;;5041675;28;20230;-81
2022/05/18 04:44:52;;;;;;;2.90;2.70;;;;;;;;;;5048918;28;20203;-79
2022/05/18 04:47:21;;;;;;;4.30;3.50;;;;;;;;;;5045094;28;20214;-79
2022/05/18 04:49:50;;;;;;;3.58;3.28;;;;;;;;;;5050712;28;20225;-78
2022/05/18 04:52:18;;;;;;;3.08;2.88;;;;;;;;;;5045636;28;20203;-79
2022/05/18 04:54:45;;;;;;;3.60;3.30;;;;;;;;;;5048843;28;20205;-79
2022/05/18 04:57:12;;;;;;;3.67;3.38;;;;;;;;;;5043160;28;20210;-79
2022/05/18 04:59:39;;;;;;;6.20;3.47;;;;;;;;;;5045486;28;20203;-79
2022/05/18 05:02:06;;;;;;;3.78;3.35;;;;;;;;;;5043692;28;20662;-79
2022/05/18 05:04:34;;;;;;;2.85;2.65;;;;;;;;;;5039372;28;20206;-79
2022/05/18 05:07:02;;;;;;;3.05;2.80;;;;;;;;;;5044351;28;20202;-79
2022/05/18 05:09:30;;;;;;;4.50;2.53;;;;;;;;;;5049090;28;20222;-79
2022/05/18 05:11:57;;;;;;;3.35;2.90;;;;;;;;;;5048166;28;20213;-79
2022/05/18 05:14:24;;;;;;;2.85;2.65;;;;;;;;;;5034695;28;20203;-79
2022/05/18 05:16:51;;;;;;;3.33;2.88;;;;;;;;;;5044289;28;20207;-79
2022/05/18 05:19:19;;;;;;;2.67;2.47;;;;;;;;;;5042686;28;20620;-79
2022/05/18 05:21:46;;;;;;;2.63;2.42;;;;;;;;;;5050291;28;20202;-79
2022/05/18 05:24:15;;;;;;;3.22;2.92;;;;;;;;;;5040630;28;20206;-80
2022/05/18 05:26:43;;;;;;;2.47;2.28;;;;;;;;;;5047019;28;20237;-79
2022/05/18 05:29:10;;;;;;;2.08;1.80;;;;;;;;;;5042771;28;20700;-79
2022/05/18 05:31:38;;;;;;;2.13;1.80;;;;;;;;;;5049169;28;20206;-79
2022/05/18 05:34:05;;;;;;;2.95;2.17;;;;;;;;;;5043437;28;20199;-80
2022/05/18 05:36:33;;;;;;;2.72;2.45;;;;;;;;;;5050259;28;20282;-79
2022/05/18 05:39:00;;;;;;;2.15;1.85;;;;;;;;;;5050838;28;20205;-79
2022/05/18 05:41:28;;;;;;;1.60;1.50;;;;;;;;;;5040644;28;20277;-79
2022/05/18 05:43:56;;;;;;;1.85;1.65;;;;;;;;;;5042011;28;20690;-79
2022/05/18 05:46:27;;;;;;;1.77;1.67;;;;;;;;;;5049878;28;20207;-79
2022/05/18 05:48:55;;;;;;;1.55;1.45;;;;;;;;;;5046506;28;20222;-79
2022/05/18 05:51:23;;;;;;;1.83;1.73;;;;;;;;;;5054856;28;20657;-79
2022/05/18 05:53:51;;;;;;;2.20;1.67;;;;;;;;;;5049984;28;20385;-79
2022/05/18 05:56:19;;;;;;;3.40;2.05;;;;;;;;;;5041206;28;20200;-81
2022/05/18 05:58:48;;;;;;;2.90;2.00;;;;;;;;;;5047397;28;20237;-80
2022/05/18 06:01:15;;;;;;;2.10;1.90;;;;;;;;;;5042493;28;20199;-80
2022/05/18 06:03:43;;;;;;;2.22;2.03;;;;;;;;;;5044062;28;20198;-80
2022/05/18 06:06:10;;;;;;;2.20;2.00;;;;;;;;;;5049878;28;20203;-81
2022/05/18 06:08:37;;;;;;;2.33;2.13;;;;;;;;;;5038093;28;20253;-80
2022/05/18 06:11:05;;;;;;;1.90;1.80;;;;;;;;;;5049135;28;20577;-82
2022/05/18 06:13:32;;;;;;;1.92;1.75;;;;;;;;;;5046546;28;20199;-83
2022/05/18 06:16:01;;;;;;;2.30;2.10;;;;;;;;;;5049468;28;20199;-81
2022/05/18 06:18:29;;;;;;;2.50;1.52;;;;;;;;;;5050423;28;20662;-80
2022/05/18 06:20:57;;;;;;;2.13;1.85;;;;;;;;;;5049150;28;20241;-82
2022/05/18 06:23:24;;;;;;;2.00;1.90;;;;;;;;;;5038827;28;20582;-83
2022/05/18 06:25:51;;;;;;;2.03;1.57;;;;;;;;;;5049871;28;20459;-82
2022/05/18 06:28:18;;;;;;;2.67;1.90;;;;;;;;;;5039517;28;20457;-81
2022/05/18 06:30:46;;;;;;;3.30;1.60;;;;;;;;;;5040848;28;20483;-80
2022/05/18 06:33:14;;;;;;;2.03;1.93;;;;;;;;;;5044291;28;20459;-81
2022/05/18 06:35:41;;;;;;;1.97;1.77;;;;;;;;;;5038712;28;20451;-79
2022/05/18 06:38:12;;;;;;;1.73;1.53;;;;;;;;;;5037321;28;20956;-79
2022/05/18 06:43:25;;;;;;;1.90;1.70;;;;;;;;;;5031267;28;20451;-80
2022/05/18 06:45:53;;;;;;;1.43;1.33;;;;;;;;;;5034102;28;20507;-79
2022/05/18 06:48:21;;;;;;;1.63;1.40;;;;;;;;;;5033695;28;20473;-80
2022/05/18 06:50:48;;;;;;;2.00;1.73;;;;;;;;;;5036236;28;20858;-79
2022/05/18 06:53:15;;;;;;;2.40;1.73;;;;;;;;;;5046759;28;20465;-85
2022/05/18 06:55:42;;;;;;;1.80;1.33;;;;;;;;;;5044950;28;20465;-83
2022/05/18 06:58:09;;;;;;;1.67;1.23;;;;;;;;;;5043199;28;20472;-82
2022/05/18 07:00:36;;;;;;;2.63;1.67;;;;;;;;;;5049182;28;20491;-82
2022/05/18 07:03:04;;;;;;;2.73;2.00;;;;;;;;;;5042732;28;20472;-83
2022/05/18 07:05:33;;;;;;;2.23;1.50;;;;;;;;;;5045220;28;20559;-82
2022/05/18 07:08:00;;;;;;;1.93;1.70;;;;;;;;;;5040206;28;20468;-82
2022/05/18 07:10:28;;;;;;;2.40;1.60;;;;;;;;;;5048976;28;20992;-84
2022/05/18 07:12:56;;;;;;;1.83;1.63;;;;;;;;;;5042597;28;20806;-84
2022/05/18 07:15:23;;;;;;;1.90;1.50;;;;;;;;;;5043863;28;20465;-84
2022/05/18 07:17:50;;;;;;;2.03;1.50;;;;;;;;;;5051215;28;20442;-82
2022/05/18 07:20:17;;;;;;;1.70;1.50;;;;;;;;;;5045193;28;20450;-82
2022/05/18 07:22:46;;;;;;;3.60;1.77;;;;;;;;;;5040813;28;20472;-83
2022/05/18 07:25:13;;;;;;;1.70;1.43;;;;;;;;;;5047019;28;20469;-82
2022/05/18 07:27:41;;;;;;;1.40;1.23;;;;;;;;;;5039759;28;20455;-84
2022/05/18 07:30:09;;;;;;;2.30;1.33;;;;;;;;;;5040725;28;20504;-85
2022/05/18 07:32:37;;;;;;;3.23;1.50;;;;;;;;;;5050997;28;20817;-84
2022/05/18 07:35:04;;;;;;;2.50;1.40;;;;;;;;;;5047387;28;20519;-81
2022/05/18 07:37:31;;;;;;;3.20;1.80;;;;;;;;;;5047282;28;20457;-85
2022/05/18 07:40:03;;;;;;;4.13;1.50;;;;;;;;;;5051213;28;20457;-84
2022/05/18 07:42:30;;;;;;;2.60;1.77;;;;;;;;;;5035514;28;20817;-84
2022/05/18 07:44:57;;;;;;;1.67;1.23;;;;;;;;;;5050811;28;20484;-86
2022/05/18 07:47:28;;;;;;;3.17;1.70;;;;;;;;;;5049597;28;20975;-86
2022/05/18 07:49:55;;;;;;;1.30;1.10;;;;;;;;;;5041819;28;20462;-87
2022/05/18 07:52:23;;;;;;;2.70;1.70;;;;;;;;;;5044829;28;20881;-85
2022/05/18 07:54:50;;;;;;;2.50;2.10;;;;;;;;;;5043022;28;20469;-84
2022/05/18 07:57:19;;;;;;;1.40;1.30;;;;;;;;;;5041600;28;21095;-85
2022/05/18 07:59:46;;;;;;;2.50;2.00;;;;;;;;;;5039481;28;20449;-83
2022/05/18 08:02:13;;;;;;;3.20;1.63;;;;;;;;;;5038665;28;20461;-84
2022/05/18 08:04:40;;;;;;;1.60;1.37;;;;;;;;;;5043393;28;20473;-83
2022/05/18 08:07:07;;;;;;;1.40;1.30;;;;;;;;;;5043862;28;20454;-84
2022/05/18 08:15:05;;;;;;;1.50;1.40;;;;;;;;;;5045044;28;20489;-83
2022/05/18 08:15:09;;;;;;;1.63;1.53;;;;;;;;;;5050620;28;20452;-88
2022/05/18 08:17:36;;;;;;;2.00;1.60;;;;;;;;;;5040415;28;20525;-83
2022/05/18 08:20:07;;;;;;;1.20;1.10;;;;;;;;;;5047720;28;20465;-83
2022/05/18 08:22:34;;;;;;;2.20;1.70;;;;;;;;;;5050849;28;20465;-84
2022/05/18 08:25:01;;;;;;;2.47;1.73;;;;;;;;;;5052432;28;20528;-83
2022/05/18 08:27:30;;;;;;;1.60;1.30;;;;;;;;;;5037593;28;20516;-83
2022/05/18 08:30:01;;;;;;;2.23;1.50;;;;;;;;;;5042058;28;20485;-83
2022/05/18 08:32:28;;;;;;;2.20;1.50;;;;;;;;;;5051129;28;20997;-83
2022/05/18 08:34:55;;;;;;;2.53;1.70;;;;;;;;;;5045005;28;20461;-83
2022/05/18 08:37:23;;;;;;;3.20;1.73;;;;;;;;;;5050957;28;20507;-83
2022/05/18 08:39:50;;;;;;;2.57;1.93;;;;;;;;;;5039847;28;20944;-83
2022/05/18 08:42:18;;;;;;;2.07;1.90;;;;;;;;;;5040511;28;20489;-83
2022/05/18 08:44:47;;;;;;;1.80;1.40;;;;;;;;;;5046615;28;20994;-84
2022/05/18 08:47:17;;;;;;;1.40;1.30;;;;;;;;;;5045483;28;20940;-85
2022/05/18 08:49:48;;;;;;;4.70;2.10;;;;;;;;;;5049074;28;20485;-85
2022/05/18 08:52:24;;;;;;;1.40;1.30;;;;;;;;;;5048311;28;20437;-82
2022/05/18 08:54:56;;;;;;;1.90;1.60;;;;;;;;;;5043078;28;20536;-83
2022/05/18 08:57:26;;;;;;;1.53;1.43;;;;;;;;;;5047761;28;21394;-81
2022/05/18 08:59:57;;;;;;;2.20;1.43;;;;;;;;;;5049302;28;20820;-81
2022/05/18 09:02:27;;;;;;;2.37;1.40;;;;;;;;;;5040328;28;20461;-82
2022/05/18 09:04:56;;;;;;;2.40;1.60;;;;;;;;;;5047049;28;20453;-82
2022/05/18 09:07:25;;;;;;;2.40;1.30;;;;;;;;;;5048460;28;20484;-82
2022/05/18 09:12:38;;;;;;;1.90;1.20;;;;;;;;;;5046075;28;20533;-82
2022/05/18 09:15:08;;;;;;;2.17;1.57;;;;;;;;;;5042249;28;20457;-81
2022/05/18 09:17:37;;;;;;;3.80;1.53;;;;;;;;;;5036000;28;20454;-84
2022/05/18 09:20:12;;;;;;;1.40;1.30;;;;;;;;;;5042212;28;20469;-82
2022/05/18 09:22:45;;;;;;;1.97;1.60;;;;;;;;;;5034400;28;20500;-85
2022/05/18 09:25:20;;;;;;;1.90;1.40;;;;;;;;;;5031192;28;20466;-83
2022/05/18 09:27:53;;;;;;;2.00;1.80;;;;;;;;;;5036932;28;20577;-82
2022/05/18 09:30:27;;;;;;;2.80;1.80;;;;;;;;;;5038915;28;20492;-85
2022/05/18 09:33:06;;;;;;;1.60;1.40;;;;;;;;;;5042698;28;21009;-84
2022/05/18 09:35:39;;;;;;;1.60;1.50;;;;;;;;;;5042478;28;20461;-86
2022/05/18 09:38:09;;;;;;;1.90;1.60;;;;;;;;;;5039204;28;20489;-84
2022/05/18 09:40:39;;;;;;;1.43;1.33;;;;;;;;;;5037092;28;20442;-82
2022/05/18 09:43:08;;;;;;;2.50;2.27;;;;;;;;;;5043766;28;21007;-82
2022/05/18 09:45:38;;;;;;;1.77;1.50;;;;;;;;;;5032475;28;20473;-82
2022/05/18 09:48:09;;;;;;;2.80;1.70;;;;;;;;;;5034255;28;20461;-84
2022/05/18 09:50:37;;;;;;;2.43;1.70;;;;;;;;;;5042354;28;20836;-83
2022/05/18 09:53:04;;;;;;;2.00;1.67;;;;;;;;;;5040397;28;20515;-83
2022/05/18 09:55:33;;;;;;;2.50;1.60;;;;;;;;;;5047688;28;20458;-83
2022/05/18 09:58:02;;;;;;;1.73;1.63;;;;;;;;;;5049685;28;20819;-83
2022/05/18 10:00:32;;;;;;;1.50;1.40;;;;;;;;;;5038415;28;20950;-82
2022/05/18 10:08:44;;;;;;;3.30;1.57;;;;;;;;;;5043211;28;20492;-85
2022/05/18 10:11:14;;;;;;;2.07;1.30;;;;;;;;;;5037069;28;20482;-84
2022/05/18 10:13:43;;;;;;;1.80;1.40;;;;;;;;;;5043214;28;20472;-86
2022/05/18 10:16:15;;;;;;;2.23;1.90;;;;;;;;;;5043329;28;20825;-85
2022/05/18 10:18:45;;;;;;;2.40;1.60;;;;;;;;;;5043667;28;20945;-85
2022/05/18 10:21:19;;;;;;;3.20;2.00;;;;;;;;;;5039480;28;20464;-84
2022/05/18 10:23:49;;;;;;;3.93;1.97;;;;;;;;;;5043785;28;20552;-86
2022/05/18 10:26:23;;;;;;;2.53;1.73;;;;;;;;;;5044834;28;20959;-84
2022/05/18 10:28:56;;;;;;;1.90;1.60;;;;;;;;;;5040997;28;20974;-84
2022/05/18 10:31:27;;;;;;;1.70;1.50;;;;;;;;;;5040636;28;20513;-84
2022/05/18 10:34:08;;;;;;;2.83;1.87;;;;;;;;;;5049010;28;20471;-84
2022/05/18 10:36:41;;;;;;;2.07;1.90;;;;;;;;;;5041438;28;20472;-82
2022/05/18 10:39:09;;;;;;;2.20;1.90;;;;;;;;;;5044206;28;20457;-83
2022/05/18 10:41:40;;;;;;;1.93;1.43;;;;;;;;;;5042662;28;20468;-84
2022/05/18 10:44:12;;;;;;;1.53;1.43;;;;;;;;;;5044228;28;20964;-84
2022/05/18 10:46:41;;;;;;;2.07;1.67;;;;;;;;;;5050256;28;20889;-82
2022/05/18 10:49:13;;;;;;;2.10;1.57;;;;;;;;;;5045543;28;20556;-83
2022/05/18 10:51:45;;;;;;;2.17;1.80;;;;;;;;;;5038916;28;20474;-84
2022/05/18 10:54:16;;;;;;;1.90;1.60;;;;;;;;;;5036034;28;20465;-84
2022/05/18 10:56:44;;;;;;;2.60;1.97;;;;;;;;;;5049085;28;20967;-85
2022/05/18 10:59:17;;;;;;;1.97;1.60;;;;;;;;;;5051367;28;20967;-83
2022/05/18 11:01:46;;;;;;;2.03;1.80;;;;;;;;;;5049860;28;20464;-84
2022/05/18 11:04:17;;;;;;;2.17;2.00;;;;;;;;;;5045374;28;20460;-84
2022/05/18 11:06:44;;;;;;;2.10;1.80;;;;;;;;;;5035983;28;20450;-85
2022/05/18 11:09:18;;;;;;;2.07;1.80;;;;;;;;;;5048986;28;20469;-84
2022/05/18 11:11:49;;;;;;;2.03;1.87;;;;;;;;;;5033315;28;20472;-82
2022/05/18 11:14:19;;;;;;;2.27;2.07;;;;;;;;;;5040556;28;20461;-84
2022/05/18 11:16:53;;;;;;;2.70;1.60;;;;;;;;;;5035082;28;20520;-85
2022/05/18 11:19:35;;;;;;;5.63;2.40;;;;;;;;;;5043784;28;20466;-83
2022/05/18 11:22:11;;;;;;;3.07;1.77;;;;;;;;;;5034830;28;20461;-85
2022/05/18 11:24:42;;;;;;;3.47;2.10;;;;;;;;;;5035401;28;20471;-83
2022/05/18 11:27:18;;;;;;;3.60;1.80;;;;;;;;;;5034875;28;20470;-83
2022/05/18 11:29:54;;;;;;;1.70;1.60;;;;;;;;;;5033053;28;20470;-83
2022/05/18 11:32:30;;;;;;;1.57;1.40;;;;;;;;;;5039475;28;21067;-84
2022/05/18 11:35:04;;;;;;;2.07;1.90;;;;;;;;;;5042155;28;20742;-83
2022/05/18 11:37:40;;;;;;;1.90;1.80;;;;;;;;;;5039186;28;20445;-82
2022/05/18 11:40:11;;;;;;;1.83;1.60;;;;;;;;;;5041408;28;20874;-83
2022/05/18 11:42:42;;;;;;;1.70;1.60;;;;;;;;;;5039456;28;20481;-83
2022/05/18 11:45:15;;;;;;;1.97;1.80;;;;;;;;;;5038151;28;20458;-83
2022/05/18 11:47:48;;;;;;;3.23;1.70;;;;;;;;;;5040766;28;20445;-83
2022/05/18 11:50:24;;;;;;;2.60;2.03;;;;;;;;;;5036883;28;20469;-83
2022/05/18 11:52:59;;;;;;;2.33;2.13;;;;;;;;;;5041187;28;20816;-83
2022/05/18 11:55:31;;;;;;;2.07;1.87;;;;;;;;;;5039326;28;20556;-84
2022/05/18 11:58:03;;;;;;;2.43;2.23;;;;;;;;;;5034846;28;20473;-83
2022/05/18 12:00:45;;;;;;;2.03;1.63;;;;;;;;;;5037506;28;20467;-82
2022/05/18 12:03:30;;;;;;;1.87;1.77;;;;;;;;;;5043953;28;20476;-83
2022/05/18 12:06:05;;;;;;;2.83;2.03;;;;;;;;;;5025505;28;20460;-83
2022/05/18 12:08:50;;;;;;;2.80;1.70;;;;;;;;;;5042805;28;20443;-84
2022/05/18 12:11:24;;;;;;;2.40;1.97;;;;;;;;;;5043321;28;20477;-83
2022/05/18 12:14:00;;;;;;;3.30;2.23;;;;;;;;;;5037349;28;20466;-82
2022/05/18 12:16:28;;;;;;;1.97;1.70;;;;;;;;;;5039974;28;20437;-83
2022/05/18 12:18:58;;;;;;;3.57;2.77;;;;;;;;;;5039292;28;20526;-83
2022/05/18 12:21:29;;;;;;;1.83;1.73;;;;;;;;;;5041674;28;20480;-83
2022/05/18 12:24:00;;;;;;;2.97;1.90;;;;;;;;;;5040599;28;20464;-82
2022/05/18 12:26:28;;;;;;;5.73;2.27;;;;;;;;;;5038957;28;20837;-84
2022/05/18 12:28:55;;;;;;;1.67;1.57;;;;;;;;;;5038763;28;20461;-83
2022/05/18 12:31:26;;;;;;;3.30;2.67;;;;;;;;;;5041248;28;20484;-82
2022/05/18 12:34:01;;;;;;;3.80;1.87;;;;;;;;;;5048117;28;20462;-82
2022/05/18 12:36:34;;;;;;;3.80;2.33;;;;;;;;;;5044284;28;20495;-83
2022/05/18 12:39:08;;;;;;;2.50;2.03;;;;;;;;;;5046811;28;20446;-81
2022/05/18 12:41:39;;;;;;;2.33;2.13;;;;;;;;;;5043385;28;20485;-83
2022/05/18 12:44:08;;;;;;;2.30;2.00;;;;;;;;;;5036667;28;20466;-82
2022/05/18 12:46:38;;;;;;;2.27;2.07;;;;;;;;;;5044311;28;20528;-83
2022/05/18 12:49:07;;;;;;;2.37;2.17;;;;;;;;;;5038140;28;20916;-84
2022/05/18 12:51:38;;;;;;;3.30;1.80;;;;;;;;;;5041016;28;20481;-83
2022/05/18 12:54:17;;;;;;;2.47;1.90;;;;;;;;;;5041647;28;20446;-83
2022/05/18 12:57:10;;;;;;;2.33;1.73;;;;;;;;;;5044362;28;20467;-83
2022/05/18 13:00:10;;;;;;;1.87;1.43;;;;;;;;;;5037648;28;20458;-84
2022/05/18 13:02:40;;;;;;;1.90;1.70;;;;;;;;;;4982101;28;20456;-84
2022/05/18 13:05:11;;;;;;;2.10;1.90;;;;;;;;;;4986553;28;20467;-82
2022/05/18 13:07:39;;;;;;;2.07;1.97;;;;;;;;;;5014170;28;20523;-83
2022/05/18 13:10:17;;;;;;;1.97;1.73;;;;;;;;;;5030374;28;20438;-84
2022/05/18 13:12:49;;;;;;;2.10;1.90;;;;;;;;;;5038886;28;20473;-83
2022/05/18 13:15:34;;;;;;;5.93;1.90;;;;;;;;;;5040977;28;20457;-83
2022/05/18 13:18:03;;;;;;;3.90;2.10;;;;;;;;;;5039709;28;20444;-83
2022/05/18 13:20:41;;;;;;;5.90;1.73;;;;;;;;;;5044965;28;20472;-83
2022/05/18 13:23:21;;;;;;;2.40;1.97;;;;;;;;;;5041623;28;20788;-82
2022/05/18 13:25:51;;;;;;;1.83;1.60;;;;;;;;;;5049918;28;20928;-82
2022/05/18 13:28:19;;;;;;;2.63;2.00;;;;;;;;;;5050354;28;20457;-81
2022/05/18 13:30:48;;;;;;;2.00;1.50;;;;;;;;;;5047344;28;20468;-82
2022/05/18 13:33:16;;;;;;;1.70;1.60;;;;;;;;;;5047823;28;20458;-82
2022/05/18 13:35:44;;;;;;;1.83;1.47;;;;;;;;;;5048665;28;20446;-82
2022/05/18 13:38:13;;;;;;;3.00;1.87;;;;;;;;;;5040197;28;20457;-82
2022/05/18 13:40:43;;;;;;;3.03;1.87;;;;;;;;;;5049371;28;20462;-82
2022/05/18 13:43:13;;;;;;;1.93;1.73;;;;;;;;;;5046285;28;20496;-82
2022/05/18 13:45:44;;;;;;;2.30;1.83;;;;;;;;;;5034953;28;20626;-82
2022/05/18 13:48:11;;;;;;;1.63;1.50;;;;;;;;;;5045714;28;20464;-84
2022/05/18 13:50:40;;;;;;;2.70;1.70;;;;;;;;;;5035464;28;20462;-81
2022/05/18 13:53:10;;;;;;;2.30;2.10;;;;;;;;;;5038094;28;20477;-82
2022/05/18 13:55:40;;;;;;;2.87;2.07;;;;;;;;;;5038802;28;20457;-83
2022/05/18 13:58:08;;;;;;;2.13;1.73;;;;;;;;;;5042335;28;20527;-83
2022/05/18 14:00:37;;;;;;;1.70;1.60;;;;;;;;;;5048811;28;20465;-83
2022/05/18 14:03:06;;;;;;;1.97;1.60;;;;;;;;;;5050640;28;20986;-84
2022/05/18 14:05:36;;;;;;;1.60;1.50;;;;;;;;;;5047291;28;20488;-84
2022/05/18 14:08:14;;;;;;;2.33;2.03;;;;;;;;;;5047392;28;20445;-83
2022/05/18 14:10:43;;;;;;;2.30;1.90;;;;;;;;;;5052761;28;20836;-83
2022/05/18 14:13:10;;;;;;;2.43;1.50;;;;;;;;;;5043989;28;20853;-86
2022/05/18 14:15:39;;;;;;;2.00;1.63;;;;;;;;;;5048200;28;20457;-85
2022/05/18 14:18:07;;;;;;;2.53;1.57;;;;;;;;;;5044360;28;21029;-83
2022/05/18 14:20:38;;;;;;;4.28;2.22;;;;;;;;;;5051704;28;20451;-80
2022/05/18 14:23:07;;;;;;;2.83;1.90;;;;;;;;;;5039030;28;20287;-77
2022/05/18 14:25:36;;;;;;;3.53;2.70;;;;;;;;;;5040828;28;20456;-86
2022/05/18 14:28:07;;;;;;;2.07;1.80;;;;;;;;;;5043848;28;20465;-85
2022/05/18 14:30:38;;;;;;;1.85;1.70;;;;;;;;;;5050219;28;20443;-86
2022/05/18 14:33:10;;;;;;;2.93;2.10;;;;;;;;;;5041509;28;20237;-87
2022/05/18 14:35:40;;;;;;;3.70;1.77;;;;;;;;;;5050744;28;20448;-85
2022/05/18 14:38:09;;;;;;;3.00;1.93;;;;;;;;;;5040019;28;20901;-86
2022/05/18 14:40:40;;;;;;;3.57;1.97;;;;;;;;;;5052788;28;20457;-87
2022/05/18 14:43:10;;;;;;;2.20;2.00;;;;;;;;;;5050613;28;20525;-87
2022/05/18 14:45:42;;;;;;;2.07;1.60;;;;;;;;;;5045369;28;20460;-86
2022/05/18 14:48:11;;;;;;;3.30;2.43;;;;;;;;;;5044569;28;20457;-84
2022/05/18 14:50:40;;;;;;;2.17;1.97;;;;;;;;;;5052112;28;20469;-84
2022/05/18 14:53:09;;;;;;;1.73;1.40;;;;;;;;;;5053485;28;20481;-85
2022/05/18 14:55:39;;;;;;;3.67;2.13;;;;;;;;;;5046105;28;20462;-85
2022/05/18 14:58:06;;;;;;;2.37;1.80;;;;;;;;;;5050284;28;20486;-88
2022/05/18 15:00:36;;;;;;;4.40;2.03;;;;;;;;;;5055402;28;20457;-88
2022/05/18 15:03:08;;;;;;;3.07;1.83;;;;;;;;;;5050166;28;20457;-88
2022/05/18 15:05:36;;;;;;;2.17;1.70;;;;;;;;;;5046994;28;20503;-87
2022/05/18 15:08:07;;;;;;;2.63;1.83;;;;;;;;;;5042485;28;20445;-85
2022/05/18 15:10:39;;;;;;;2.43;1.50;;;;;;;;;;5051036;28;20843;-86
2022/05/18 15:13:09;;;;;;;2.00;1.90;;;;;;;;;;5045982;28;20867;-86